Time;durP1;ratioP1;P1;durP2;ratioP2;P2;SDS_P1;SDS_P2;PMS_P1;PMS_P2;Temp;Humidity;BMP_temperature;BMP_pressure;BME280_temperature;BME280_humidity;BME280_pressure;Samples;Min_cycle;Max_cycle;Signal;HPM_P1;HPM_P2
2022/06/25 00:02:27;;;;;;;1.45;1.10;;;19.90;99.90;;;20.19;86.13;100399.34;5229063;28;20053;-73
2022/06/25 00:07:49;;;;;;;1.98;1.35;;;19.80;99.90;;;20.15;86.47;100400.28;5228952;28;20063;-71
2022/06/25 00:10:23;;;;;;;1.98;1.17;;;19.80;99.90;;;20.14;86.64;100402.91;5228905;28;20041;-72
2022/06/25 00:12:54;;;;;;;1.48;1.27;;;19.70;99.90;;;20.14;86.72;100398.50;5228806;28;20041;-73
2022/06/25 00:15:26;;;;;;;1.35;1.25;;;19.80;99.90;;;20.14;86.91;100406.44;5228454;28;20055;-73
2022/06/25 00:17:58;;;;;;;1.23;1.13;;;19.80;99.90;;;20.14;86.66;100408.22;5228651;28;20045;-71
2022/06/25 00:20:30;;;;;;;2.67;1.48;;;19.80;99.90;;;20.13;86.64;100403.81;5228542;28;20056;-71
2022/06/25 00:23:02;;;;;;;2.78;2.05;;;19.80;99.90;;;20.05;86.57;100411.84;5228631;28;20045;-73
2022/06/25 00:25:36;;;;;;;2.45;1.65;;;19.70;99.90;;;20.05;86.80;100418.00;5210656;28;20055;-71
2022/06/25 00:28:08;;;;;;;1.30;1.20;;;19.70;99.90;;;20.03;86.77;100409.22;5228328;28;20045;-73
2022/06/25 00:30:41;;;;;;;1.90;1.52;;;19.70;99.90;;;20.02;86.76;100418.06;5228448;28;20044;-73
2022/06/25 00:33:13;;;;;;;1.65;1.40;;;19.70;99.90;;;20.02;86.99;100422.47;5228636;28;20055;-71
2022/06/25 00:35:45;;;;;;;1.40;1.30;;;19.70;99.90;;;19.98;87.09;100416.31;5210374;28;20053;-71
2022/06/25 00:38:17;;;;;;;3.72;1.50;;;19.70;99.90;;;19.95;87.22;100423.38;5210434;28;20037;-71
2022/06/25 00:40:50;;;;;;;1.83;1.33;;;19.60;99.90;;;19.92;87.47;100426.06;5228111;28;20072;-71
2022/06/25 00:43:22;;;;;;;2.60;1.63;;;19.60;99.90;;;19.89;87.40;100423.47;5210304;28;20055;-72
2022/06/25 00:45:55;;;;;;;2.05;1.35;;;19.60;99.90;;;19.86;87.54;100421.72;5210159;28;20131;-71
2022/06/25 00:48:27;;;;;;;1.88;1.45;;;19.50;99.90;;;19.84;87.48;100438.50;5209474;28;20052;-71
2022/06/25 00:50:59;;;;;;;2.40;1.30;;;19.50;99.90;;;19.80;87.71;100429.69;5210052;28;20544;-71
2022/06/25 00:53:34;;;;;;;2.35;1.42;;;19.50;99.90;;;19.78;88.20;100432.38;5210200;28;20527;-71
2022/06/25 00:56:10;;;;;;;1.80;1.40;;;19.50;99.90;;;19.78;88.03;100432.38;5209939;28;20535;-71
2022/06/25 00:58:45;;;;;;;2.22;1.40;;;19.50;99.90;;;19.77;88.07;100443.84;5209875;28;20143;-71
2022/06/25 01:01:19;;;;;;;1.52;1.40;;;19.40;99.90;;;19.76;88.18;100446.50;5209565;28;20049;-72
2022/06/25 01:03:52;;;;;;;1.88;1.40;;;19.40;99.90;;;19.75;88.42;100448.25;5209970;28;20060;-71
2022/06/25 01:06:24;;;;;;;2.10;1.40;;;19.50;99.90;;;19.78;88.50;100455.28;5227628;28;20037;-71
2022/06/25 01:08:57;;;;;;;1.80;1.60;;;19.40;99.90;;;19.78;88.49;100456.16;5227892;28;20520;-71
2022/06/25 01:11:30;;;;;;;4.00;1.55;;;19.50;99.90;;;19.77;88.35;100456.19;5209673;28;20091;-71
2022/06/25 01:14:08;;;;;;;1.95;1.70;;;19.40;99.90;;;19.74;88.36;100459.72;5209525;28;20148;-71
2022/06/25 01:16:42;;;;;;;2.65;1.73;;;19.50;99.90;;;19.75;88.45;100460.59;5209452;28;20037;-71
2022/06/25 01:19:14;;;;;;;1.70;1.50;;;19.50;99.90;;;19.74;88.24;100470.28;5209574;28;20041;-71
2022/06/25 01:21:47;;;;;;;1.55;1.23;;;19.40;99.90;;;19.74;88.28;100465.00;5209368;28;20137;-71
2022/06/25 01:24:20;;;;;;;2.45;1.40;;;19.40;99.90;;;19.74;88.34;100467.66;5227381;28;20414;-71
2022/06/25 01:26:52;;;;;;;1.60;1.30;;;19.40;99.90;;;19.76;88.21;100475.59;5227321;28;20115;-71
2022/06/25 01:29:25;;;;;;;2.40;1.20;;;19.40;99.90;;;19.76;88.23;100472.94;5209461;28;20051;-72
2022/06/25 01:31:57;;;;;;;2.22;1.40;;;19.40;99.90;;;19.73;88.18;100479.13;5227190;28;20098;-71
2022/06/25 01:34:30;;;;;;;1.45;1.35;;;19.40;99.90;;;19.72;88.03;100477.38;5228571;28;20045;-72
2022/06/25 01:37:02;;;;;;;1.90;1.40;;;19.40;99.90;;;19.72;88.62;100487.06;5238125;28;20139;-72
2022/06/25 01:39:35;;;;;;;1.30;1.20;;;19.40;99.90;;;19.71;88.25;100485.31;5247805;28;20389;-72
2022/06/25 01:42:58;;;;;;;1.73;1.35;;;19.40;99.90;;;19.70;88.39;100489.75;5229590;28;20119;-72
2022/06/25 01:45:00;;;;;;;1.42;1.20;;;19.40;99.90;;;19.68;88.72;100485.34;5229228;28;20055;-72
2022/06/25 01:47:32;;;;;;;1.30;1.20;;;19.30;99.90;;;19.65;88.75;100486.25;5246351;28;20157;-72
2022/06/25 01:50:06;;;;;;;1.33;1.10;;;19.30;99.90;;;19.64;89.12;100484.50;5229570;28;20056;-72
2022/06/25 01:52:38;;;;;;;1.60;1.23;;;19.30;99.90;;;19.64;89.06;100491.53;5246122;28;20131;-72
2022/06/25 01:55:13;;;;;;;1.23;1.13;;;19.30;99.90;;;19.62;89.06;100488.88;5246061;28;20064;-71
2022/06/25 01:57:48;;;;;;;1.33;1.23;;;19.20;99.90;;;19.59;89.27;100496.84;5245605;28;20049;-71
2022/06/25 02:00:22;;;;;;;2.28;1.10;;;19.20;99.90;;;19.59;89.15;100495.97;5228520;28;20054;-72
2022/06/25 02:03:07;;;;;;;2.33;1.20;;;19.20;99.90;;;19.59;88.84;100501.28;5245955;28;20063;-72
2022/06/25 02:08:32;;;;;;;2.45;1.30;;;19.20;99.90;;;19.55;88.09;100500.38;5229302;28;20146;-72
2022/06/25 02:11:09;;;;;;;2.25;1.40;;;19.20;99.90;;;19.53;88.21;100507.44;5247355;28;20048;-72
2022/06/25 02:13:43;;;;;;;1.63;1.30;;;19.20;99.90;;;19.49;88.13;100510.97;5247152;28;20068;-72
2022/06/25 02:16:15;;;;;;;1.30;1.20;;;19.20;99.90;;;19.49;88.33;100510.97;5247080;28;20127;-72
2022/06/25 02:18:48;;;;;;;1.70;1.30;;;19.20;99.90;;;19.48;88.19;100503.94;5245786;28;20119;-72
2022/06/25 02:21:20;;;;;;;1.30;1.20;;;19.20;99.90;;;19.45;88.15;100514.53;5229385;28;20052;-72
2022/06/25 02:23:56;;;;;;;2.10;1.40;;;19.10;99.90;;;19.43;87.95;100516.28;5229155;28;20060;-72
2022/06/25 02:26:30;;;;;;;1.20;1.10;;;19.10;99.90;;;19.42;87.96;100511.91;5245631;28;20045;-71
2022/06/25 02:29:02;;;;;;;1.40;1.30;;;19.10;99.90;;;19.38;87.68;100504.91;5246798;28;20440;-72
2022/06/25 02:31:35;;;;;;;2.55;1.10;;;19.10;99.90;;;19.29;87.95;100513.72;5228932;28;20051;-72
2022/06/25 02:34:11;;;;;;;3.28;1.60;;;19.00;99.90;;;19.22;88.34;100512.00;5245872;28;20135;-72
2022/06/25 02:36:43;;;;;;;2.47;1.42;;;19.00;99.90;;;19.19;88.51;100507.63;5245701;28;20048;-72
2022/06/25 02:39:15;;;;;;;1.95;1.25;;;18.90;99.90;;;19.15;88.62;100505.88;5246865;28;20117;-72
2022/06/25 02:41:49;;;;;;;1.52;1.33;;;18.90;99.90;;;19.16;88.78;100512.91;5228883;28;20097;-72
2022/06/25 02:44:22;;;;;;;1.48;1.20;;;18.90;99.90;;;19.16;88.59;100518.19;5245498;28;20079;-72
2022/06/25 02:47:00;;;;;;;4.10;1.40;;;18.90;99.90;;;19.18;88.71;100515.56;5245419;28;20094;-72
2022/06/25 02:49:44;;;;;;;1.88;1.20;;;18.90;99.90;;;19.17;88.80;100519.97;5245469;28;20576;-71
2022/06/25 02:52:17;;;;;;;2.42;1.15;;;18.90;99.90;;;19.18;88.82;100513.81;5228851;28;20044;-72
2022/06/25 02:54:49;;;;;;;1.67;1.30;;;18.90;99.90;;;19.19;88.77;100520.84;5245470;28;20078;-72
2022/06/25 03:00:15;;;;;;;1.50;1.15;;;18.90;99.90;;;19.14;89.02;100525.25;5228396;28;20118;-72
2022/06/25 03:02:48;;;;;;;1.48;1.17;;;18.90;99.90;;;19.12;89.06;100526.16;5245354;28;20131;-72
2022/06/25 03:05:20;;;;;;;1.70;1.13;;;18.80;99.90;;;19.13;89.41;100527.91;5245298;28;20544;-72
2022/06/25 03:07:53;;;;;;;2.28;1.27;;;18.80;99.90;;;19.12;89.39;100531.44;5228837;28;20053;-72
2022/06/25 03:10:26;;;;;;;2.65;1.27;;;18.80;99.90;;;19.11;89.51;100530.56;5228479;28;20072;-70
2022/06/25 03:13:00;;;;;;;1.27;1.13;;;18.80;99.90;;;19.10;89.71;100533.19;5232795;28;20482;-73
2022/06/25 03:15:35;;;;;;;1.20;1.10;;;18.70;99.90;;;19.10;89.88;100533.19;5232758;28;20474;-71
2022/06/25 03:18:08;;;;;;;2.55;1.20;;;18.70;99.90;;;19.07;89.80;100534.09;5249342;28;20114;-71
2022/06/25 03:20:58;;;;;;;2.13;1.30;;;18.70;99.90;;;19.07;89.63;100539.38;5250655;28;20063;-71
2022/06/25 03:23:31;;;;;;;1.35;1.20;;;18.70;99.90;;;19.07;89.84;100543.78;5232978;28;20057;-71
2022/06/25 03:26:03;;;;;;;4.38;1.50;;;18.70;99.90;;;19.07;89.84;100543.78;5249047;28;20048;-72
2022/06/25 03:28:37;;;;;;;2.13;1.55;;;18.70;99.90;;;19.06;89.93;100542.91;5250195;28;20120;-70
2022/06/25 03:31:11;;;;;;;1.73;1.23;;;18.70;99.90;;;19.09;89.54;100549.94;5232588;28;20071;-71
2022/06/25 03:33:44;;;;;;;1.58;1.35;;;18.70;99.90;;;19.08;89.61;100550.81;5248936;28;20048;-73
2022/06/25 03:36:23;;;;;;;1.73;1.25;;;18.80;99.90;;;19.09;89.38;100557.88;5249217;28;20409;-72
2022/06/25 03:38:58;;;;;;;1.27;1.15;;;18.80;99.90;;;19.09;89.24;100564.03;5248948;28;20044;-71
2022/06/25 03:41:35;;;;;;;2.17;1.30;;;18.80;99.90;;;19.08;89.21;100551.69;5250193;28;20048;-71
2022/06/25 03:44:21;;;;;;;3.70;1.45;;;18.80;99.90;;;19.10;89.00;100565.78;5248755;28;20040;-72
2022/06/25 03:46:57;;;;;;;2.17;1.63;;;18.80;99.90;;;19.08;88.97;100562.28;5248867;28;20053;-71
2022/06/25 03:49:30;;;;;;;2.10;1.55;;;18.80;99.90;;;19.09;88.96;100569.31;5248946;28;20497;-71
2022/06/25 03:52:06;;;;;;;1.85;1.20;;;18.80;99.90;;;19.10;88.71;100571.06;5249070;28;20044;-71
2022/06/25 03:54:38;;;;;;;3.75;1.70;;;18.80;99.90;;;19.09;88.76;100566.66;5231817;28;20072;-71
2022/06/25 03:57:10;;;;;;;3.45;1.95;;;18.80;99.90;;;19.10;88.67;100572.81;5250500;28;20121;-70
2022/06/25 04:00:15;;;;;;;3.15;1.52;;;18.80;99.90;;;19.11;88.77;100570.19;5240233;28;20060;-73
2022/06/25 04:03:01;;;;;;;1.70;1.50;;;18.80;99.90;;;19.11;89.07;100566.69;5231846;28;20102;-72
2022/06/25 04:05:33;;;;;;;2.90;1.80;;;18.80;99.90;;;19.12;88.81;100569.31;5250060;28;20135;-72
2022/06/25 04:08:21;;;;;;;1.60;1.50;;;18.90;99.90;;;19.14;88.91;100574.59;5231674;28;20033;-72
2022/06/25 04:10:56;;;;;;;2.03;1.77;;;18.90;99.90;;;19.15;88.72;100566.66;5258059;22;20041;-79
2022/06/25 04:13:28;;;;;;;1.40;1.30;;;18.80;99.90;;;19.16;88.83;100575.44;5237897;28;20049;-80
2022/06/25 04:16:02;;;;;;;2.72;1.58;;;18.90;99.90;;;19.14;88.96;100567.53;5215926;28;20045;-82
2022/06/25 04:18:35;;;;;;;1.77;1.40;;;18.90;99.90;;;19.18;89.15;100569.28;5210297;28;20051;-80
2022/06/25 04:21:07;;;;;;;3.33;1.67;;;18.90;99.90;;;19.23;88.74;100579.81;5209570;28;20072;-81
2022/06/25 04:23:39;;;;;;;2.58;1.60;;;18.90;99.90;;;19.23;88.71;100564.88;5225705;28;20065;-80
2022/06/25 04:26:14;;;;;;;2.40;1.38;;;18.90;99.90;;;19.25;88.88;100565.75;5225255;28;20041;-79
2022/06/25 04:29:03;;;;;;;1.88;1.50;;;18.90;99.90;;;19.27;88.68;100571.00;5196315;28;20041;-81
2022/06/25 04:31:48;;;;;;;1.77;1.40;;;19.00;99.90;;;19.25;88.57;100565.75;5230677;28;20595;-80
2022/06/25 04:34:28;;;;;;;1.55;1.45;;;19.00;99.90;;;19.28;88.56;100572.75;5229980;28;20049;-80
2022/06/25 04:37:01;;;;;;;2.92;1.60;;;19.00;99.90;;;19.28;88.47;100570.13;5230019;28;20045;-81
2022/06/25 04:39:34;;;;;;;2.88;1.77;;;19.00;99.90;;;19.32;88.47;100571.00;5230168;28;20045;-81
2022/06/25 04:42:06;;;;;;;5.28;2.03;;;19.00;99.90;;;19.33;88.36;100572.75;5230058;28;20416;-81
2022/06/25 04:44:39;;;;;;;2.13;1.73;;;19.10;99.90;;;19.33;88.38;100570.09;5246756;28;20044;-80
2022/06/25 04:47:13;;;;;;;2.72;1.70;;;19.10;99.90;;;19.39;88.21;100570.06;5229534;28;20064;-79
2022/06/25 04:49:52;;;;;;;3.05;1.80;;;19.10;99.90;;;19.49;88.21;100574.41;5229975;28;20044;-80
2022/06/25 04:52:24;;;;;;;2.53;1.77;;;19.20;99.90;;;19.71;88.42;100580.53;5229983;28;20123;-80
2022/06/25 04:54:57;;;;;;;2.60;1.80;;;19.30;99.90;;;19.92;87.67;100590.06;5229908;28;20052;-80
2022/06/25 04:57:29;;;;;;;5.13;2.13;;;19.50;99.90;;;20.15;86.78;100580.22;5230051;28;20529;-79
2022/06/25 05:00:25;;;;;;;4.72;1.75;;;19.70;99.90;;;20.47;84.88;100581.72;5230350;28;20140;-81
2022/06/25 05:02:58;;;;;;;3.42;1.70;;;20.00;99.90;;;20.70;83.69;100576.22;5229353;28;20067;-80
2022/06/25 05:05:31;;;;;;;4.38;1.80;;;20.20;99.90;;;20.89;81.94;100577.78;5229761;28;20530;-81
2022/06/25 05:08:05;;;;;;;3.20;1.73;;;20.50;99.90;;;21.09;80.51;100588.16;5229570;28;20045;-80
2022/06/25 05:10:37;;;;;;;2.63;1.85;;;20.60;99.90;;;21.25;79.13;100581.75;5223251;28;20060;-80
2022/06/25 05:13:12;;;;;;;4.03;1.73;;;20.80;99.90;;;21.57;78.42;100583.16;5225264;28;20047;-81
2022/06/25 05:15:47;;;;;;;3.00;1.85;;;21.00;99.90;;;21.99;76.39;100586.13;5225318;28;20137;-82
2022/06/25 05:18:20;;;;;;;2.75;1.77;;;21.30;99.90;;;22.20;74.36;100591.97;5210170;28;20041;-83
2022/06/25 05:20:53;;;;;;;2.83;1.70;;;21.60;99.90;;;22.24;73.10;100602.56;5225332;28;20095;-85
2022/06/25 05:23:25;;;;;;;2.10;1.38;;;21.70;99.90;;;22.25;72.84;100599.00;5219086;28;20045;-84
2022/06/25 05:25:57;;;;;;;3.50;1.67;;;21.80;99.90;;;22.44;72.44;100609.31;5246969;28;20411;-83
2022/06/25 05:28:29;;;;;;;1.77;1.65;;;21.90;99.90;;;22.64;71.50;100603.63;5229706;28;20045;-83
2022/06/25 05:31:01;;;;;;;3.13;1.92;;;22.10;99.90;;;22.79;70.74;100618.44;5245684;28;20041;-83
2022/06/25 05:33:35;;;;;;;1.98;1.80;;;22.20;99.90;;;22.94;69.98;100615.50;5230265;28;20051;-84
2022/06/25 05:36:07;;;;;;;7.20;1.60;;;22.30;99.90;;;23.20;69.57;100619.44;5230727;28;20045;-83
2022/06/25 05:38:41;;;;;;;2.50;1.50;;;22.50;99.90;;;23.39;68.09;100626.16;5229393;28;20672;-84
2022/06/25 05:41:13;;;;;;;2.42;1.50;;;22.70;99.90;;;23.65;67.28;100632.75;5229585;28;20579;-83
2022/06/25 05:43:45;;;;;;;3.33;1.38;;;22.90;99.90;;;23.79;65.84;100633.31;5230645;28;20120;-83
2022/06/25 05:46:18;;;;;;;4.57;1.58;;;23.10;99.90;;;24.01;65.84;100642.59;5231329;28;20403;-86
2022/06/25 05:48:51;;;;;;;1.98;1.63;;;23.30;99.90;;;24.22;64.69;100648.31;5230563;28;20049;-83
2022/06/25 05:51:23;;;;;;;1.90;1.55;;;23.50;99.80;;;24.47;63.85;100645.97;5188807;28;20046;-84
2022/06/25 05:53:55;;;;;;;3.63;1.70;;;23.70;99.50;;;24.45;62.37;100648.69;5227060;28;20052;-85
2022/06/25 05:56:27;;;;;;;1.30;1.20;;;23.70;98.50;;;24.35;62.75;100645.34;5246158;28;20442;-84
2022/06/25 05:59:00;;;;;;;3.42;1.65;;;23.70;98.60;;;24.46;62.91;100653.09;5210380;28;20050;-80
2022/06/25 06:01:32;;;;;;;2.05;1.45;;;23.70;98.60;;;24.62;62.13;100654.44;5207743;28;20427;-81
2022/06/25 06:04:05;;;;;;;2.58;1.42;;;23.90;98.30;;;24.84;62.09;100645.88;5212790;28;20051;-80
2022/06/25 06:06:37;;;;;;;2.28;1.52;;;24.10;98.30;;;25.19;61.18;100652.13;5208852;28;20041;-82
2022/06/25 06:09:09;;;;;;;3.05;1.33;;;24.40;98.10;;;25.45;60.37;100649.59;5225668;28;20052;-81
2022/06/25 06:11:41;;;;;;;2.58;1.42;;;24.60;97.50;;;25.48;58.93;100654.81;5224870;28;20053;-82
2022/06/25 06:14:14;;;;;;;2.95;1.58;;;24.70;96.60;;;25.50;59.17;100646.78;5210064;28;20049;-82
2022/06/25 06:16:46;;;;;;;3.40;1.52;;;24.70;96.40;;;25.76;59.34;100648.72;5209639;28;20380;-82
2022/06/25 06:19:19;;;;;;;3.97;1.80;;;24.90;96.70;;;25.98;58.22;100645.34;5208169;28;20045;-82
2022/06/25 06:21:51;;;;;;;1.70;1.60;;;25.10;96.10;;;26.27;58.00;100658.69;5209934;28;20045;-80
2022/06/25 06:24:23;;;;;;;1.92;1.45;;;25.30;96.00;;;26.30;57.19;100658.59;5210553;28;20049;-81
2022/06/25 06:26:55;;;;;;;2.83;1.50;;;25.40;95.20;;;26.41;56.12;100648.47;5210533;28;20045;-80
2022/06/25 06:29:28;;;;;;;3.92;1.45;;;25.50;94.90;;;26.54;55.46;100664.94;5217553;28;20102;-81
2022/06/25 06:32:00;;;;;;;2.55;1.48;;;25.70;94.20;;;26.65;54.52;100658.31;5209300;28;20049;-82
2022/06/25 06:34:33;;;;;;;1.42;1.20;;;25.80;93.40;;;26.84;54.02;100660.38;5209785;28;20060;-83
2022/06/25 06:37:06;;;;;;;1.92;1.45;;;25.90;93.00;;;26.88;52.87;100664.72;5225460;28;20068;-83
2022/06/25 06:39:38;;;;;;;3.50;1.40;;;26.00;91.90;;;27.01;52.76;100649.97;5208160;28;20058;-81
2022/06/25 06:42:10;;;;;;;1.73;1.20;;;26.10;91.80;;;27.08;51.98;100648.88;5221551;28;20037;-77
2022/06/25 06:44:46;;;;;;;6.10;1.70;;;26.20;91.00;;;27.01;50.20;100652.66;5229510;28;20050;-77
2022/06/25 06:47:18;;;;;;;3.15;1.40;;;26.20;88.90;;;26.98;52.33;100650.06;5231137;28;20049;-83
2022/06/25 06:49:52;;;;;;;2.00;1.20;;;26.20;90.50;;;26.96;52.18;100662.63;5209183;28;20045;-86
2022/06/25 06:52:26;;;;;;;2.50;1.25;;;26.20;90.50;;;26.91;52.37;100656.56;5235666;28;20050;-82
2022/06/25 06:54:59;;;;;;;1.83;1.20;;;26.10;90.50;;;26.79;52.40;100663.19;5241992;28;20073;-86
2022/06/25 06:57:32;;;;;;;2.25;1.10;;;26.00;90.30;;;26.67;52.91;100663.63;5235258;28;20073;-85
2022/06/25 07:00:06;;;;;;;2.75;1.10;;;25.90;90.50;;;26.64;52.91;100666.41;5232276;28;20040;-86
2022/06/25 07:02:39;;;;;;;1.50;1.23;;;25.80;90.60;;;26.50;52.77;100665.06;5205457;28;20048;-84
2022/06/25 07:05:12;;;;;;;2.08;1.27;;;25.70;90.50;;;26.38;52.82;100669.91;5209213;28;20041;-85
2022/06/25 07:07:47;;;;;;;3.63;1.20;;;25.60;90.30;;;26.30;53.04;100666.63;5224341;28;20042;-85
2022/06/25 07:10:20;;;;;;;1.40;1.20;;;25.50;90.50;;;26.17;53.14;100667.00;5200179;28;20095;-85
2022/06/25 07:12:53;;;;;;;1.60;1.10;;;25.40;90.50;;;26.17;53.59;100663.47;5210668;28;20125;-86
2022/06/25 07:15:25;;;;;;;2.45;1.20;;;25.30;90.80;;;26.21;53.48;100663.31;5210817;28;20045;-85
2022/06/25 07:17:57;;;;;;;1.88;1.40;;;25.30;90.80;;;26.33;53.36;100667.38;5211833;28;20045;-86
2022/06/25 07:20:30;;;;;;;1.98;1.30;;;25.40;90.80;;;26.42;53.03;100660.91;5211363;28;20052;-84
2022/06/25 07:23:03;;;;;;;0.95;0.95;;;25.40;90.60;;;26.54;52.98;100664.94;5210846;28;20104;-85
2022/06/25 07:25:35;;;;;;;1.33;0.95;;;25.50;90.50;;;26.63;52.53;100673.56;5211426;28;20415;-85
2022/06/25 07:28:08;;;;;;;2.70;1.40;;;25.60;90.40;;;26.69;51.85;100664.47;5211159;28;20409;-84
2022/06/25 07:30:40;;;;;;;1.30;1.20;;;25.60;89.70;;;26.75;51.85;100667.78;5210208;28;20041;-84
2022/06/25 07:33:12;;;;;;;2.72;1.13;;;25.70;89.70;;;26.74;51.95;100657.16;5215202;28;20232;-85
2022/06/25 07:35:46;;;;;;;1.15;1.02;;;25.80;89.70;;;26.83;51.51;100658.63;5209304;28;20056;-85
2022/06/25 07:38:18;;;;;;;1.80;1.10;;;25.80;88.90;;;26.91;51.53;100664.59;5217227;28;20048;-83
2022/06/25 07:40:50;;;;;;;1.67;1.20;;;25.90;88.90;;;27.05;50.84;100648.94;5224642;28;20531;-84
2022/06/25 07:43:22;;;;;;;1.20;1.10;;;26.00;88.30;;;27.14;50.59;100651.31;5218410;28;20452;-83
2022/06/25 07:45:55;;;;;;;2.50;1.13;;;26.00;87.80;;;27.30;50.61;100656.97;5207630;28;20074;-83
2022/06/25 07:48:28;;;;;;;1.15;1.05;;;26.10;87.90;;;27.43;49.97;100657.41;5212816;28;20041;-83
2022/06/25 07:53:51;;;;;;;1.50;1.27;;;26.30;85.20;;;27.47;48.56;100643.84;5224674;28;20104;-82
2022/06/25 07:56:23;;;;;;;2.53;1.35;;;26.40;84.30;;;27.64;48.51;100653.91;5223217;28;20053;-85
2022/06/25 07:58:55;;;;;;;2.55;1.10;;;26.50;84.40;;;27.81;47.47;100662.22;5214916;28;20049;-84
2022/06/25 08:01:27;;;;;;;3.42;1.40;;;26.60;83.30;;;28.03;46.98;100658.69;5232920;28;20037;-86
2022/06/25 08:04:00;;;;;;;1.42;1.13;;;26.70;82.80;;;28.34;46.43;100658.38;5221046;28;20045;-83
2022/06/25 08:06:34;;;;;;;3.35;1.20;;;26.90;81.90;;;28.56;45.54;100659.25;5221152;28;20045;-84
2022/06/25 08:09:07;;;;;;;2.25;1.30;;;27.10;80.70;;;28.69;45.77;100659.59;5214875;28;20131;-85
2022/06/25 08:11:39;;;;;;;2.40;1.05;;;27.20;80.50;;;28.86;45.58;100651.69;5223627;28;20055;-85
2022/06/25 08:14:11;;;;;;;3.13;1.30;;;27.30;80.90;;;29.15;44.70;100649.59;5224410;28;20046;-83
2022/06/25 08:16:43;;;;;;;1.75;1.20;;;27.40;79.50;;;29.54;44.58;100648.72;5227699;28;20037;-83
2022/06/25 08:19:15;;;;;;;1.55;1.20;;;27.60;80.30;;;29.30;44.86;100656.94;5210181;28;20392;-83
2022/06/25 08:21:49;;;;;;;1.10;1.00;;;27.60;79.50;;;29.52;45.14;100653.31;5211264;28;20045;-82
2022/06/25 08:24:21;;;;;;;;;;;27.60;80.00;;;30.31;43.91;100662.97;5212457;28;20042;-82
2022/06/25 08:26:53;;;;;;;1.25;0.90;;;27.80;80.40;;;31.46;41.66;100665.19;5228882;28;19925;-83
2022/06/25 08:29:25;;;;;;;1.27;0.93;;;28.30;79.30;;;32.57;39.52;100664.31;5215088;28;20437;-82
2022/06/25 08:31:57;;;;;;;2.00;0.85;;;28.90;77.70;;;33.61;37.36;100655.31;5214074;28;20503;-85
2022/06/25 08:34:29;;;;;;;2.15;1.15;;;29.50;75.00;;;34.47;35.47;100655.16;5231645;28;20491;-85
2022/06/25 08:37:04;;;;;;;2.75;1.00;;;30.10;72.40;;;34.69;33.70;100658.19;5231234;28;20064;-86
2022/06/25 08:39:37;;;;;;;1.55;0.90;;;30.60;68.60;;;34.20;35.58;100668.66;5228252;28;20522;-82
2022/06/25 08:42:09;;;;;;;1.58;0.93;;;30.60;69.30;;;33.45;36.28;100660.81;5228377;28;20052;-82
2022/06/25 08:44:41;;;;;;;3.80;1.10;;;30.50;69.20;;;33.03;37.17;100648.09;5227175;28;20397;-80
2022/06/25 08:47:14;;;;;;;1.63;1.00;;;30.20;69.00;;;33.96;36.06;100652.19;5212577;28;20450;-81
2022/06/25 08:49:47;;;;;;;1.23;1.00;;;30.60;69.00;;;35.10;34.81;100648.19;5222109;28;20037;-82
2022/06/25 08:52:22;;;;;;;1.10;1.00;;;31.50;68.10;;;34.88;33.95;100648.75;5250267;28;20041;-81
2022/06/25 08:54:56;;;;;;;3.28;1.10;;;31.70;65.90;;;33.59;35.72;100650.97;5253667;28;20076;-84
2022/06/25 08:57:29;;;;;;;1.23;0.95;;;31.20;65.60;;;32.51;37.11;100650.31;5253790;28;20132;-83
2022/06/25 09:00:03;;;;;;;1.60;1.00;;;30.60;66.00;;;31.85;38.33;100644.16;5250826;28;20469;-81
2022/06/25 09:02:39;;;;;;;2.28;1.13;;;30.00;67.30;;;31.02;39.35;100646.84;5234837;28;20612;-83
2022/06/25 09:05:11;;;;;;;2.47;1.33;;;29.50;68.00;;;30.01;41.20;100638.44;5243177;28;20144;-81
2022/06/25 09:07:55;;;;;;;3.20;1.13;;;28.80;69.00;;;29.00;42.59;100635.00;5239383;28;20050;-82
2022/06/25 09:10:29;;;;;;;1.25;1.15;;;28.10;69.80;;;29.09;42.42;100633.75;5242581;28;20074;-82
2022/06/25 09:13:04;;;;;;;1.98;1.13;;;27.80;70.50;;;30.07;41.35;100639.97;5238318;28;20515;-82
2022/06/25 09:15:39;;;;;;;1.90;1.08;;;28.10;71.00;;;30.75;38.29;100636.56;5231128;28;20045;-80
2022/06/25 09:18:13;;;;;;;2.33;0.90;;;28.50;67.80;;;30.61;38.52;100630.13;5234016;28;20033;-82
2022/06/25 09:21:00;;;;;;;1.85;0.93;;;28.60;67.30;;;29.97;39.92;100629.66;5245828;28;20052;-79
2022/06/25 09:23:37;;;;;;;1.75;1.02;;;28.40;67.80;;;29.49;40.89;100632.81;5231091;28;20056;-82
2022/06/25 09:26:11;;;;;;;1.92;1.02;;;28.10;68.30;;;29.75;40.43;100626.25;5245647;28;20140;-80
2022/06/25 09:28:45;;;;;;;2.78;1.20;;;28.10;68.90;;;30.69;39.48;100626.13;5231744;28;20053;-84
2022/06/25 09:31:34;;;;;;;2.38;1.20;;;28.60;68.70;;;31.49;37.35;100617.41;5232198;28;20045;-84
2022/06/25 09:34:09;;;;;;;1.38;1.00;;;29.20;66.50;;;31.64;37.08;100625.59;5248464;28;20049;-79
2022/06/25 09:36:41;;;;;;;1.67;1.00;;;29.60;65.80;;;31.51;37.01;100620.88;5231883;28;20045;-83
2022/06/25 09:39:14;;;;;;;3.08;1.13;;;29.70;64.80;;;31.15;36.98;100617.47;5224063;28;20068;-82
2022/06/25 09:41:53;;;;;;;2.20;1.10;;;29.70;63.90;;;30.67;38.04;100619.06;5211764;28;20039;-78
2022/06/25 09:44:26;;;;;;;2.60;1.00;;;29.50;64.10;;;30.34;38.90;100625.19;5208274;28;20055;-80
2022/06/25 09:47:01;;;;;;;3.28;1.20;;;29.40;65.10;;;30.17;39.97;100617.09;5224491;28;20450;-79
2022/06/25 09:49:33;;;;;;;2.88;1.20;;;29.20;65.70;;;30.07;40.30;100615.78;5247559;28;20517;-83
2022/06/25 09:52:06;;;;;;;4.45;1.25;;;29.10;66.00;;;30.03;40.30;100609.66;5248239;28;20041;-81
2022/06/25 09:54:39;;;;;;;2.38;1.20;;;29.10;66.20;;;29.54;40.77;100616.50;5229767;28;20045;-81
2022/06/25 09:57:12;;;;;;;2.22;1.20;;;28.80;65.80;;;29.34;41.42;100612.94;5230429;28;20044;-81
2022/06/25 09:59:45;;;;;;;2.75;1.33;;;28.60;66.70;;;29.17;41.89;100623.53;5231707;28;20399;-81
2022/06/25 10:02:18;;;;;;;1.98;1.50;;;28.40;67.10;;;28.83;41.64;100625.00;5238410;28;20049;-82
2022/06/25 10:04:50;;;;;;;1.88;1.15;;;28.10;66.90;;;28.65;42.55;100623.13;5219602;28;20128;-81
2022/06/25 10:07:59;;;;;;;2.58;1.35;;;28.00;68.10;;;28.50;43.12;100629.13;5222458;28;20044;-79
2022/06/25 10:10:20;;;;;;;2.50;1.17;;;27.80;68.50;;;28.48;43.52;100614.91;5229195;28;20534;-81
2022/06/25 10:12:52;;;;;;;1.52;1.20;;;27.70;69.30;;;28.43;43.95;100614.22;5247292;28;20049;-82
2022/06/25 10:15:25;;;;;;;1.90;1.17;;;27.60;69.50;;;28.28;44.43;100616.56;5226484;28;20045;-82
2022/06/25 10:17:57;;;;;;;1.92;1.20;;;27.50;70.20;;;28.07;43.97;100625.50;5215543;28;20046;-82
2022/06/25 10:20:30;;;;;;;1.88;1.40;;;27.40;69.50;;;27.93;44.68;100617.16;5188696;28;20096;-82
2022/06/25 10:23:05;;;;;;;1.73;1.50;;;27.30;70.10;;;27.89;44.96;100610.16;5189944;28;20145;-82
2022/06/25 10:25:40;;;;;;;2.20;1.20;;;27.20;70.50;;;27.88;45.16;100611.09;5190480;28;20050;-82
2022/06/25 10:28:15;;;;;;;1.73;1.30;;;27.10;71.10;;;27.78;45.09;100615.94;5212844;28;20050;-86
2022/06/25 10:30:50;;;;;;;2.55;1.30;;;27.00;70.90;;;27.56;45.04;100611.38;5206711;28;20038;-84
2022/06/25 10:33:24;;;;;;;3.70;1.70;;;26.90;70.70;;;27.33;45.50;100597.13;5200405;28;20045;-84
2022/06/25 10:35:58;;;;;;;1.98;1.23;;;26.70;71.10;;;27.23;45.75;100592.09;5213040;28;20466;-81
2022/06/25 10:38:30;;;;;;;2.50;1.30;;;26.50;71.30;;;27.33;46.48;100594.47;5211535;28;20042;-84
2022/06/25 10:43:53;;;;;;;1.63;1.30;;;26.60;71.90;;;27.34;46.26;100588.16;5207239;28;20196;-82
2022/06/25 10:46:30;;;;;;;3.85;1.70;;;26.60;72.30;;;27.38;46.50;100589.78;5218722;28;20108;-82
2022/06/25 10:49:10;;;;;;;2.53;1.48;;;26.60;72.60;;;27.26;46.28;100586.66;5221886;28;20423;-82
2022/06/25 10:51:45;;;;;;;4.80;1.55;;;26.60;72.20;;;27.35;46.45;100595.25;5225960;28;20045;-83
2022/06/25 10:54:38;;;;;;;3.00;1.40;;;26.60;72.60;;;27.54;45.93;100597.19;5226366;28;20113;-81
2022/06/25 10:57:12;;;;;;;1.58;1.30;;;26.70;72.20;;;27.81;45.26;100594.38;5226108;28;20049;-83